Time;durP1;ratioP1;P1;durP2;ratioP2;P2;SDS_P1;SDS_P2;PMS_P1;PMS_P2;Temp;Humidity;BMP_temperature;BMP_pressure;BME280_temperature;BME280_humidity;BME280_pressure;Samples;Min_cycle;Max_cycle;Signal;HPM_P1;HPM_P2
2022/09/30 00:01:48;;;;;;;12.30;7.03;;;;;;;5.17;83.00;100261.44;7399376;19;20426;-67
2022/09/30 00:04:21;;;;;;;7.45;5.95;;;;;;;5.14;83.07;100261.44;7396849;19;20015;-67
2022/09/30 00:06:50;;;;;;;6.90;6.18;;;;;;;5.12;83.02;100261.44;7396569;19;20078;-67
2022/09/30 00:09:26;;;;;;;7.90;6.30;;;;;;;5.10;83.06;100264.94;7398689;19;20021;-68
2022/09/30 00:11:54;;;;;;;9.38;7.43;;;;;;;5.09;83.30;100258.84;7399331;19;20097;-68
2022/09/30 00:14:24;;;;;;;8.15;7.30;;;;;;;5.06;83.36;100257.13;7398879;19;20039;-68
2022/09/30 00:16:53;;;;;;;8.63;7.72;;;;;;;5.03;83.30;100259.78;7396617;19;20018;-68
2022/09/30 00:19:24;;;;;;;10.10;6.05;;;;;;;5.01;83.34;100271.91;7398834;19;20090;-69
2022/09/30 00:21:52;;;;;;;7.00;5.75;;;;;;;4.99;83.29;100272.78;7397703;19;20078;-69
2022/09/30 00:24:21;;;;;;;7.18;6.47;;;;;;;4.97;83.54;100284.97;7397408;19;20094;-66
2022/09/30 00:26:49;;;;;;;7.88;6.38;;;;;;;4.95;83.63;100279.75;7398356;19;20073;-66
2022/09/30 00:29:18;;;;;;;9.57;7.63;;;;;;;4.93;83.80;100280.63;7396454;19;20081;-67
2022/09/30 00:31:46;;;;;;;11.60;7.05;;;;;;;4.92;83.67;100279.78;7398443;19;20083;-65
2022/09/30 00:34:16;;;;;;;8.48;7.60;;;;;;;4.89;83.82;100287.56;7398296;19;20031;-66
2022/09/30 00:36:49;;;;;;;7.72;7.00;;;;;;;4.85;83.84;100278.06;7395783;19;20015;-66
2022/09/30 00:39:20;;;;;;;7.95;6.80;;;;;;;4.84;83.64;100284.16;7396441;19;20022;-66
2022/09/30 00:41:51;;;;;;;7.85;7.05;;;;;;;4.82;83.84;100283.31;7398477;19;20039;-66
2022/09/30 00:44:49;;;;;;;8.23;5.93;;;;;;;4.80;83.89;100279.84;7396283;19;20090;-67
2022/09/30 00:47:33;;;;;;;6.93;6.22;;;;;;;4.78;83.93;100276.38;7395543;19;20019;-67
2022/09/30 00:50:06;;;;;;;7.90;7.10;;;;;;;4.76;83.98;100284.19;7397333;19;20074;-66
2022/09/30 00:52:38;;;;;;;7.90;7.10;;;;;;;4.75;83.91;100279.00;7397069;19;20031;-66
2022/09/30 00:55:11;;;;;;;8.70;6.90;;;;;;;4.74;83.87;100283.34;7395699;19;20022;-67
2022/09/30 00:57:39;;;;;;;7.25;6.50;;;;;;;4.72;83.91;100283.34;7397028;19;20078;-67
2022/09/30 01:00:09;;;;;;;8.05;6.40;;;;;;;4.71;84.01;100280.75;7397358;19;20019;-67
2022/09/30 01:02:38;;;;;;;7.95;6.43;;;;;;;4.69;84.16;100279.91;7395574;19;20022;-68
2022/09/30 01:05:08;;;;;;;10.57;6.75;;;;;;;4.68;84.26;100283.38;7395475;19;20082;-67
2022/09/30 01:07:39;;;;;;;6.97;6.28;;;;;;;4.65;84.29;100289.47;7395303;19;20031;-67
2022/09/30 01:10:08;;;;;;;8.80;6.45;;;;;;;4.62;84.41;100292.06;7397480;19;20023;-67
2022/09/30 01:12:43;;;;;;;7.50;5.82;;;;;;;4.58;84.58;100290.34;7396775;19;20078;-67
2022/09/30 01:15:12;;;;;;;7.57;6.22;;;;;;;4.56;84.22;100289.47;7396442;19;20511;-66
2022/09/30 01:17:51;;;;;;;6.80;5.90;;;;;;;4.52;84.59;100286.03;7395044;19;20082;-67
2022/09/30 01:20:46;;;;;;;7.78;5.60;;;;;;;4.49;84.44;100287.81;7397217;19;20077;-67
2022/09/30 01:23:58;;;;;;;6.25;5.60;;;;;;;4.45;84.44;100291.25;7394824;19;20090;-68
2022/09/30 01:26:50;;;;;;;7.18;5.95;;;;;;;4.40;84.48;100305.13;7394483;19;20078;-66
2022/09/30 01:29:56;;;;;;;10.10;7.78;;;;;;;4.38;84.36;100316.41;7396522;19;20424;-67
2022/09/30 01:32:43;;;;;;;8.38;7.57;;;;;;;4.34;84.43;100312.09;7396592;19;20073;-67
2022/09/30 01:35:20;;;;;;;9.30;7.72;;;;;;;4.30;84.45;100311.22;7395116;19;20086;-67
2022/09/30 01:38:00;;;;;;;8.13;7.32;;;;;;;4.26;84.40;100301.72;7394988;19;20090;-67
2022/09/30 01:40:42;;;;;;;8.77;7.90;;;;;;;4.24;84.53;100308.66;7396451;19;20018;-67
2022/09/30 01:43:16;;;;;;;8.77;7.28;;;;;;;4.22;84.31;100300.88;7396163;19;20010;-67
2022/09/30 01:45:48;;;;;;;;;;;;;;;4.20;84.41;100310.38;7397998;19;20026;-67
2022/09/30 01:48:24;;;;;;;8.52;7.55;;;;;;;4.12;84.16;100295.69;7394510;19;20313;-67
2022/09/30 01:50:58;;;;;;;8.57;7.63;;;;;;;4.14;84.36;100305.19;7395966;19;20086;-67
2022/09/30 01:53:32;;;;;;;9.30;7.90;;;;;;;4.13;84.46;100310.41;7395453;19;20078;-67
2022/09/30 01:56:06;;;;;;;8.20;7.47;;;;;;;4.09;84.49;100293.97;7396139;19;20025;-67
2022/09/30 01:58:41;;;;;;;8.35;7.55;;;;;;;4.10;84.52;100303.50;7393492;19;20074;-67
2022/09/30 02:01:17;;;;;;;9.23;7.60;;;;;;;4.07;84.53;100295.72;7394368;19;20074;-67
2022/09/30 02:03:51;;;;;;;8.27;7.00;;;;;;;4.07;84.65;100304.34;7395317;19;20028;-67
2022/09/30 02:06:21;;;;;;;;;;;;;;;4.06;84.65;100302.63;7395412;19;20082;-66
2022/09/30 02:08:55;;;;;;;11.40;9.40;;;;;;;4.04;84.53;100308.69;7393841;19;19929;-67
2022/09/30 02:11:27;;;;;;;73.85;41.05;;;;;;;3.99;84.76;100295.72;7395942;19;20497;-67
2022/09/30 02:14:01;;;;;;;19.65;12.90;;;;;;;4.02;84.77;100300.03;7393853;19;20086;-67
2022/09/30 02:16:34;;;;;;;18.67;11.40;;;;;;;4.01;84.74;100301.78;7395360;19;20095;-67
2022/09/30 02:19:13;;;;;;;8.32;6.75;;;;;;;4.00;84.74;100307.81;7393125;19;20014;-67
2022/09/30 02:21:44;;;;;;;6.82;6.15;;;;;;;4.00;84.78;100310.41;7394755;19;20022;-67
2022/09/30 02:24:18;;;;;;;8.48;6.00;;;;;;;3.97;84.95;100307.84;7394553;19;20078;-67
2022/09/30 02:26:50;;;;;;;8.43;6.15;;;;;;;3.98;84.78;100306.09;7394067;19;20543;-67
2022/09/30 02:29:23;;;;;;;6.63;5.80;;;;;;;3.94;84.90;100300.03;7396476;19;20086;-68
2022/09/30 02:31:57;;;;;;;7.63;6.07;;;;;;;3.92;84.74;100309.59;7395124;19;20040;-67
2022/09/30 02:34:34;;;;;;;9.35;6.45;;;;;;;3.90;84.73;100312.19;7394996;19;20074;-67
2022/09/30 02:37:07;;;;;;;6.15;5.55;;;;;;;3.87;84.92;100299.19;7394025;19;20022;-68
2022/09/30 02:39:44;;;;;;;10.23;8.33;;;;;;;3.86;85.10;100310.44;7394730;19;20027;-67
2022/09/30 02:42:17;;;;;;;10.45;7.47;;;;;;;3.83;85.07;100312.16;7392535;19;20070;-67
2022/09/30 02:44:45;;;;;;;9.00;7.40;;;;;;;3.80;85.16;100307.00;7394483;19;20456;-66
2022/09/30 02:47:18;;;;;;;8.18;7.15;;;;;;;3.79;85.24;100310.44;7391952;19;20082;-67
2022/09/30 02:49:56;;;;;;;7.35;6.63;;;;;;;3.75;85.42;100310.47;7394346;19;20074;-66
2022/09/30 02:52:30;;;;;;;10.25;8.02;;;;;;;3.74;85.20;100313.94;7392673;19;20070;-68
2022/09/30 02:55:12;;;;;;;8.98;7.38;;;;;;;3.73;85.43;100317.38;7393732;19;20484;-66
2022/09/30 02:57:47;;;;;;;10.70;7.40;;;;;;;3.71;85.21;100321.69;7393083;19;20070;-67
2022/09/30 03:00:16;;;;;;;7.90;7.05;;;;;;;3.70;85.44;100337.28;7394491;19;20078;-67
2022/09/30 03:02:44;;;;;;;7.47;6.70;;;;;;;3.68;85.65;100339.03;7391445;19;20465;-66
2022/09/30 03:05:16;;;;;;;10.15;9.07;;;;;;;3.65;85.63;100342.47;7392341;19;20082;-67
2022/09/30 03:07:45;;;;;;;12.77;10.65;;;;;;;3.63;85.60;100339.00;7392940;19;20074;-67
2022/09/30 03:10:17;;;;;;;13.07;9.30;;;;;;;3.60;85.57;100336.41;7393294;19;20501;-67
2022/09/30 03:13:02;;;;;;;12.88;10.07;;;;;;;3.57;85.65;100336.41;7391039;19;20481;-67
2022/09/30 03:15:43;;;;;;;9.27;7.50;;;;;;;3.55;85.45;100340.72;7393691;19;20087;-67
2022/09/30 03:18:30;;;;;;;8.32;7.03;;;;;;;3.52;85.35;100343.31;7394529;19;20023;-67
2022/09/30 03:21:10;;;;;;;9.13;8.23;;;;;;;3.49;85.42;100341.59;7400985;19;20035;-67
2022/09/30 03:24:25;;;;;;;11.32;9.32;;;;;;;3.46;85.50;100338.13;7397735;19;20544;-67
2022/09/30 03:27:01;;;;;;;8.77;7.50;;;;;;;3.45;85.33;100338.97;7393910;19;20086;-67
2022/09/30 03:29:39;;;;;;;11.30;8.35;;;;;;;3.41;85.60;100336.41;7400059;19;20014;-67
2022/09/30 03:32:17;;;;;;;10.32;9.18;;;;;;;3.40;85.54;100345.03;7400535;19;20070;-67
2022/09/30 03:35:03;;;;;;;9.82;8.13;;;;;;;3.40;85.42;100344.19;7400254;19;20018;-67
2022/09/30 03:37:47;;;;;;;11.43;8.38;;;;;;;3.38;85.69;100341.56;7396905;19;20490;-67
2022/09/30 03:40:24;;;;;;;12.20;8.63;;;;;;;3.37;85.82;100338.97;7399629;19;20028;-67
2022/09/30 03:42:59;;;;;;;10.32;8.13;;;;;;;3.35;85.51;100346.75;7399928;19;20014;-66
2022/09/30 03:45:35;;;;;;;9.32;6.93;;;;;;;3.33;85.79;100364.03;7397790;19;20083;-67
2022/09/30 03:48:08;;;;;;;6.78;5.90;;;;;;;3.30;86.06;100363.16;7397496;19;20485;-66
2022/09/30 03:50:38;;;;;;;8.30;6.28;;;;;;;3.31;85.94;100364.91;7399143;19;20506;-66
2022/09/30 03:53:12;;;;;;;5.80;5.15;;;;;;;3.29;85.81;100362.31;7396753;19;20504;-66
2022/09/30 03:55:52;;;;;;;7.47;6.32;;;;;;;3.27;85.93;100366.63;7399280;19;20026;-67
2022/09/30 03:58:23;;;;;;;7.40;6.22;;;;;;;3.24;86.09;100364.88;7398629;19;20052;-66
2022/09/30 04:00:55;;;;;;;8.05;6.43;;;;;;;3.23;85.85;100368.31;7399666;19;20030;-67
2022/09/30 04:03:25;;;;;;;7.30;6.40;;;;;;;3.21;86.05;100367.47;7399288;19;20048;-68
2022/09/30 04:05:53;;;;;;;10.85;8.05;;;;;;;3.21;86.07;100367.47;7396391;19;20018;-67
2022/09/30 04:08:25;;;;;;;9.30;8.50;;;;;;;3.18;85.89;100372.66;7397017;19;20031;-67
2022/09/30 04:10:54;;;;;;;11.00;9.40;;;;;;;3.17;86.03;100372.66;7399116;19;20540;-67
2022/09/30 04:13:22;;;;;;;10.95;9.02;;;;;;;3.15;86.07;100369.19;7398674;19;20025;-67
2022/09/30 04:15:55;;;;;;;11.60;8.85;;;;;;;3.13;86.16;100371.75;7398667;19;20036;-68
2022/09/30 04:18:24;;;;;;;10.57;9.10;;;;;;;3.12;86.17;100379.53;7396535;19;20018;-68
2022/09/30 04:20:52;;;;;;;11.07;9.77;;;;;;;3.07;85.92;100372.63;7398667;19;20018;-67
2022/09/30 04:23:30;;;;;;;12.13;10.02;;;;;;;3.07;86.05;100383.00;7396002;19;20011;-66
2022/09/30 04:26:05;;;;;;;11.25;10.15;;;;;;;3.06;86.24;100376.06;7396521;19;20098;-67
2022/09/30 04:28:34;;;;;;;11.93;9.48;;;;;;;3.05;86.17;100383.84;7396091;19;20033;-67
2022/09/30 04:31:03;;;;;;;10.25;9.25;;;;;;;3.03;86.09;100385.56;7397726;19;20025;-67
2022/09/30 04:33:31;;;;;;;10.70;9.48;;;;;;;3.01;86.06;100380.38;7397910;19;20034;-67
2022/09/30 04:36:02;;;;;;;10.00;8.93;;;;;;;3.00;86.30;100386.41;7398012;19;20021;-67
2022/09/30 04:38:33;;;;;;;12.38;9.50;;;;;;;3.01;86.17;100395.94;7396288;19;20025;-67
2022/09/30 04:41:04;;;;;;;12.13;9.45;;;;;;;3.00;86.19;100396.78;7398076;19;20022;-68
2022/09/30 04:43:33;;;;;;;11.07;9.30;;;;;;;2.98;86.45;100406.28;7397868;19;20018;-67
2022/09/30 04:46:02;;;;;;;10.93;9.07;;;;;;;2.94;86.31;100401.94;7395359;19;20015;-67
2022/09/30 04:48:31;;;;;;;11.55;10.05;;;;;;;2.96;86.45;100410.59;7395193;19;20018;-68
2022/09/30 04:51:00;;;;;;;14.18;10.25;;;;;;;2.95;86.63;100411.47;7394945;19;20499;-68
2022/09/30 04:53:29;;;;;;;11.68;10.57;;;;;;;2.95;86.40;100411.47;7395077;19;20018;-69
2022/09/30 04:56:03;;;;;;;15.65;10.68;;;;;;;2.94;86.53;100422.69;7396588;19;20047;-68
2022/09/30 04:58:32;;;;;;;11.63;9.88;;;;;;;2.90;86.50;100426.97;7394436;19;20014;-69
2022/09/30 05:01:04;;;;;;;11.80;10.18;;;;;;;2.92;86.70;100434.78;7393996;19;20021;-67
2022/09/30 05:03:32;;;;;;;12.27;10.60;;;;;;;2.91;86.41;100438.22;7395249;19;20027;-68
2022/09/30 05:06:01;;;;;;;14.07;11.50;;;;;;;2.89;86.68;100439.94;7394543;19;20015;-67
2022/09/30 05:08:31;;;;;;;16.48;13.32;;;;;;;2.86;86.76;100440.78;7392838;19;20074;-67
2022/09/30 05:11:04;;;;;;;14.45;12.63;;;;;;;2.85;86.69;100441.63;7395736;19;20084;-68
2022/09/30 05:13:34;;;;;;;13.00;11.65;;;;;;;2.84;86.60;100446.81;7396594;19;20073;-67
2022/09/30 05:16:04;;;;;;;16.27;12.18;;;;;;;2.81;86.69;100449.41;7395253;19;20010;-68
2022/09/30 05:18:32;;;;;;;16.42;13.63;;;;;;;2.80;86.73;100458.03;7392826;19;20544;-66
2022/09/30 05:21:02;;;;;;;16.08;13.00;;;;;;;2.78;86.80;100458.03;7396162;19;20041;-68
2022/09/30 05:23:32;;;;;;;15.82;14.05;;;;;;;2.77;86.78;100459.75;7393659;19;20023;-67
2022/09/30 05:26:03;;;;;;;17.30;14.07;;;;;;;2.78;87.03;100463.22;7394963;19;20082;-67
2022/09/30 05:28:32;;;;;;;15.02;13.32;;;;;;;2.79;86.76;100466.66;7394996;19;20029;-68
2022/09/30 05:31:04;;;;;;;18.50;14.18;;;;;;;2.80;87.04;100466.66;7395962;19;20010;-68
2022/09/30 05:33:33;;;;;;;18.13;12.63;;;;;;;2.81;86.88;100470.13;7396222;19;20367;-67
2022/09/30 05:36:04;;;;;;;16.20;11.93;;;;;;;2.80;86.95;100471.00;7394355;19;20041;-67
2022/09/30 05:38:32;;;;;;;14.27;11.00;;;;;;;2.80;87.20;100465.81;7393853;19;20503;-67
2022/09/30 05:41:10;;;;;;;11.70;10.50;;;;;;;2.81;87.08;100476.16;7393773;19;20074;-67
2022/09/30 05:43:39;;;;;;;17.60;12.70;;;;;;;2.83;86.96;100476.16;7394786;19;20448;-68
2022/09/30 05:46:08;;;;;;;15.48;12.95;;;;;;;2.85;87.25;100477.06;7393627;19;20014;-68
2022/09/30 05:48:37;;;;;;;14.50;12.18;;;;;;;2.86;87.05;100474.47;7394401;19;20088;-68
2022/09/30 05:51:06;;;;;;;18.48;13.48;;;;;;;2.87;87.34;100478.78;7395522;19;20021;-67
2022/09/30 05:53:37;;;;;;;14.95;12.25;;;;;;;2.89;87.31;100476.22;7395547;19;20037;-67
2022/09/30 05:56:09;;;;;;;15.85;12.80;;;;;;;2.90;87.14;100473.63;7396097;19;20018;-67
2022/09/30 05:58:39;;;;;;;16.73;13.80;;;;;;;2.94;87.32;100479.69;7393628;19;20480;-67
2022/09/30 06:01:09;;;;;;;16.05;12.85;;;;;;;2.96;87.45;100488.34;7395409;19;20028;-67
2022/09/30 06:03:38;;;;;;;19.95;13.88;;;;;;;2.99;87.23;100488.34;7394937;19;20516;-68
2022/09/30 06:06:08;;;;;;;19.33;14.45;;;;;;;3.01;87.28;100489.25;7393092;19;20495;-68
2022/09/30 06:08:37;;;;;;;16.23;13.43;;;;;;;3.03;87.41;100489.25;7392836;19;20487;-68
2022/09/30 06:11:13;;;;;;;20.73;14.23;;;;;;;3.04;87.30;100490.97;7393471;19;20026;-67
2022/09/30 06:13:43;;;;;;;19.75;13.77;;;;;;;3.06;87.17;100487.53;7394586;19;20018;-67
2022/09/30 06:16:13;;;;;;;17.13;12.57;;;;;;;3.12;87.35;100497.06;7394471;19;20484;-68
2022/09/30 06:18:42;;;;;;;20.40;13.88;;;;;;;3.17;87.71;100502.28;7393045;19;20090;-68
2022/09/30 06:21:12;;;;;;;19.10;12.55;;;;;;;3.20;87.42;100503.16;7392517;19;20484;-68
2022/09/30 06:23:42;;;;;;;17.90;12.07;;;;;;;3.24;87.57;100510.06;7393140;19;20017;-68
2022/09/30 06:26:15;;;;;;;16.05;11.43;;;;;;;3.31;87.90;100512.69;7392832;19;20037;-68
2022/09/30 06:28:44;;;;;;;17.87;11.47;;;;;;;3.36;87.98;100522.25;7392487;19;20019;-67
2022/09/30 06:31:13;;;;;;;20.10;12.38;;;;;;;3.42;87.91;100526.59;7394507;19;20018;-68
2022/09/30 06:33:42;;;;;;;19.60;12.77;;;;;;;3.48;88.18;100524.00;7394083;19;20077;-68
2022/09/30 06:36:10;;;;;;;17.83;14.63;;;;;;;3.54;88.35;100520.59;7394307;19;20074;-69
2022/09/30 06:38:39;;;;;;;16.80;13.15;;;;;;;3.60;88.39;100523.19;7392217;19;20019;-67
2022/09/30 06:41:09;;;;;;;17.42;15.30;;;;;;;3.68;88.52;100525.81;7393774;19;20015;-68
2022/09/30 06:43:41;;;;;;;16.30;14.50;;;;;;;3.74;88.71;100518.03;7393332;19;20037;-69
2022/09/30 06:46:11;;;;;;;21.17;15.52;;;;;;;3.81;88.90;100522.38;7395189;19;20018;-67
2022/09/30 06:48:39;;;;;;;20.38;15.15;;;;;;;3.88;89.05;100526.75;7391752;19;20359;-67
2022/09/30 06:51:08;;;;;;;26.23;16.52;;;;;;;3.95;88.96;100527.59;7393695;19;20052;-67
2022/09/30 06:53:38;;;;;;;25.75;17.33;;;;;;;4.03;89.15;100531.09;7397807;19;20021;-67
2022/09/30 06:56:07;;;;;;;27.10;18.80;;;;;;;4.11;89.51;100525.03;7398515;19;20102;-68
2022/09/30 06:58:35;;;;;;;34.88;21.00;;;;;;;4.19;89.71;100525.91;7399001;19;20011;-67
2022/09/30 07:01:08;;;;;;;36.35;22.70;;;;;;;4.28;89.89;100532.84;7401136;19;20020;-67
2022/09/30 07:03:37;;;;;;;33.72;20.23;;;;;;;4.37;90.14;100533.72;7401910;19;20007;-68
2022/09/30 07:06:07;;;;;;;31.85;21.88;;;;;;;4.46;90.37;100532.88;7398434;19;20022;-67
2022/09/30 07:08:37;;;;;;;36.13;21.65;;;;;;;4.56;90.43;100537.19;7397674;19;20497;-67
2022/09/30 07:11:13;;;;;;;32.40;22.75;;;;;;;4.66;90.66;100534.56;7400246;19;20402;-66
2022/09/30 07:13:42;;;;;;;35.35;22.30;;;;;;;4.77;90.82;100537.19;7400071;19;20359;-68
2022/09/30 07:16:14;;;;;;;36.17;22.40;;;;;;;4.85;90.73;100543.22;7400607;19;20544;-67
2022/09/30 07:18:43;;;;;;;28.20;21.08;;;;;;;4.95;91.04;100539.72;7398253;19;20078;-67
2022/09/30 07:21:14;;;;;;;35.85;25.30;;;;;;;5.08;91.41;100545.78;7400244;19;20018;-68
2022/09/30 07:23:46;;;;;;;36.35;24.85;;;;;;;5.19;91.35;100549.25;7400670;19;20006;-68
2022/09/30 07:26:15;;;;;;;38.67;24.27;;;;;;;5.30;91.29;100548.34;7398803;19;20369;-68
2022/09/30 07:28:44;;;;;;;34.65;24.65;;;;;;;5.41;91.61;100548.28;7398066;19;20086;-68
2022/09/30 07:31:18;;;;;;;37.13;26.35;;;;;;;5.50;91.83;100541.31;7399906;19;20027;-68
2022/09/30 07:33:49;;;;;;;42.95;27.30;;;;;;;5.62;92.26;100540.38;7397964;19;20019;-67
2022/09/30 07:36:17;;;;;;;40.30;28.17;;;;;;;5.75;93.21;100545.53;7399429;19;20018;-67
2022/09/30 07:38:48;;;;;;;40.20;27.30;;;;;;;5.87;92.60;100546.31;7398022;19;20074;-67
2022/09/30 07:41:20;;;;;;;37.08;27.02;;;;;;;6.00;92.46;100549.78;7399195;19;20010;-67
2022/09/30 07:43:49;;;;;;;42.05;28.55;;;;;;;6.12;92.63;100548.81;7399443;19;20352;-68
2022/09/30 07:46:23;;;;;;;37.28;25.60;;;;;;;6.24;92.78;100555.69;7396753;19;20015;-67
2022/09/30 07:48:53;;;;;;;34.80;24.70;;;;;;;6.36;93.17;100550.41;7396773;19;20369;-68
2022/09/30 07:51:24;;;;;;;27.55;21.83;;;;;;;6.47;93.12;100552.94;7399322;19;20015;-67
2022/09/30 07:53:55;;;;;;;43.97;30.33;;;;;;;6.61;93.04;100557.16;7399601;19;20032;-67
2022/09/30 07:56:25;;;;;;;36.35;25.27;;;;;;;6.73;92.58;100558.81;7399871;19;20153;-68
2022/09/30 07:58:55;;;;;;;31.92;24.17;;;;;;;6.84;93.15;100565.63;7396399;19;20070;-67
2022/09/30 08:01:27;;;;;;;24.70;19.65;;;;;;;6.95;92.69;100568.16;7399496;19;20066;-68
2022/09/30 08:03:57;;;;;;;20.80;17.58;;;;;;;7.08;92.94;100560.22;7395504;19;20477;-68
2022/09/30 08:06:27;;;;;;;20.83;16.65;;;;;;;7.20;92.87;100573.13;7397337;19;20017;-67
2022/09/30 08:08:57;;;;;;;18.98;16.17;;;;;;;7.32;92.29;100572.13;7396823;19;20018;-69
2022/09/30 08:11:27;;;;;;;20.60;16.23;;;;;;;7.44;92.38;100577.22;7396673;19;20025;-68
2022/09/30 08:13:57;;;;;;;19.77;15.23;;;;;;;7.56;92.03;100586.66;7398280;19;20425;-68
2022/09/30 08:16:29;;;;;;;15.43;13.75;;;;;;;7.65;91.68;100581.31;7398971;19;20257;-68
2022/09/30 08:18:58;;;;;;;15.45;13.18;;;;;;;7.76;91.39;100588.13;7396243;19;20021;-68
2022/09/30 08:21:27;;;;;;;15.77;12.40;;;;;;;7.87;91.26;100577.56;7398670;19;20490;-68
2022/09/30 08:23:56;;;;;;;13.35;11.93;;;;;;;7.98;91.00;100581.75;7395547;19;20074;-68
2022/09/30 08:26:25;;;;;;;12.63;10.55;;;;;;;8.10;90.65;100583.34;7396673;19;20089;-68
2022/09/30 08:28:53;;;;;;;14.43;11.18;;;;;;;8.23;90.39;100586.63;7396333;19;20029;-69
2022/09/30 08:31:28;;;;;;;14.73;11.90;;;;;;;8.35;90.20;100579.50;7396267;19;20023;-68
2022/09/30 08:33:57;;;;;;;15.32;11.88;;;;;;;8.45;89.73;100583.69;7397612;19;20368;-68
2022/09/30 08:36:27;;;;;;;15.20;12.85;;;;;;;8.55;89.52;100576.63;7395526;19;20018;-68
2022/09/30 08:38:56;;;;;;;14.55;12.70;;;;;;;8.66;89.15;100592.13;7396243;19;20025;-68
2022/09/30 08:42:24;;;;;;;;;;;;;;;;;;;;;
2022/09/30 08:44:52;;;;;;;12.70;11.25;;;;;;;8.89;88.71;100589.97;7395244;19;20015;-68
2022/09/30 08:47:45;;;;;;;14.77;12.90;;;;;;;9.03;88.43;100599.34;7395838;19;20019;-68
2022/09/30 08:50:21;;;;;;;11.82;9.45;;;;;;;9.15;87.95;100600.88;7396923;19;20432;-67
2022/09/30 08:52:52;;;;;;;12.23;9.90;;;;;;;9.26;87.77;100599.81;7395918;19;20026;-67
2022/09/30 08:55:24;;;;;;;10.35;8.30;;;;;;;9.35;87.30;100601.41;7396901;19;20022;-68
2022/09/30 08:57:54;;;;;;;8.00;7.20;;;;;;;9.46;86.88;100598.56;7395561;19;20015;-68
2022/09/30 09:00:24;;;;;;;9.15;7.82;;;;;;;9.58;86.59;100606.19;7397307;19;20427;-67
2022/09/30 09:02:58;;;;;;;8.50;7.57;;;;;;;9.67;86.12;100599.88;7396859;19;20015;-67
2022/09/30 09:05:45;;;;;;;9.00;7.18;;;;;;;9.78;85.70;100607.50;7397141;19;20093;-68
2022/09/30 09:08:22;;;;;;;8.90;6.55;;;;;;;9.89;85.32;100605.53;7395442;19;20028;-67
2022/09/30 09:10:58;;;;;;;8.02;6.53;;;;;;;9.99;84.83;100608.81;7397137;19;20018;-67
2022/09/30 09:13:45;;;;;;;8.00;6.65;;;;;;;10.10;84.32;100603.38;7396856;19;20019;-67
2022/09/30 09:16:22;;;;;;;10.55;7.38;;;;;;;10.20;83.94;100604.88;7393080;19;20074;-68
2022/09/30 09:19:00;;;;;;;7.50;6.55;;;;;;;10.31;83.55;100598.53;7394786;19;20019;-68
2022/09/30 09:21:40;;;;;;;9.20;7.82;;;;;;;10.41;83.17;100600.06;7394385;19;20377;-69
2022/09/30 09:24:16;;;;;;;8.88;6.22;;;;;;;10.52;82.56;100598.06;7394929;19;20025;-67
2022/09/30 09:26:44;;;;;;;7.60;5.85;;;;;;;10.64;81.90;100603.91;7394784;19;20013;-67
2022/09/30 09:29:27;;;;;;;8.98;6.15;;;;;;;10.75;81.43;100597.50;7395565;19;20090;-67
2022/09/30 09:31:58;;;;;;;8.43;6.13;;;;;;;10.87;80.82;100598.09;7396205;19;20015;-67
2022/09/30 09:34:31;;;;;;;6.70;5.70;;;;;;;10.96;80.29;100592.59;7395146;19;20048;-67
2022/09/30 09:37:16;;;;;;;6.95;5.53;;;;;;;11.06;79.69;100598.50;7395185;19;20070;-68
2022/09/30 09:40:06;;;;;;;9.07;6.20;;;;;;;11.16;79.04;100584.22;7395939;19;20018;-70
2022/09/30 09:42:46;;;;;;;10.35;5.65;;;;;;;11.29;77.96;100594.41;7395344;19;20074;-70
2022/09/30 09:45:24;;;;;;;5.82;4.97;;;;;;;11.40;77.90;100589.72;7393501;19;20020;-64
2022/09/30 09:47:55;;;;;;;6.15;4.72;;;;;;;11.50;77.72;100587.66;7393332;19;20480;-65
2022/09/30 09:50:34;;;;;;;7.15;4.93;;;;;;;11.63;76.81;100581.16;7393550;19;20082;-66
2022/09/30 09:53:16;;;;;;;7.75;4.85;;;;;;;11.78;76.23;100579.88;7395367;19;20082;-69
2022/09/30 09:55:45;;;;;;;8.32;5.72;;;;;;;11.95;75.82;100594.28;7393175;19;20028;-69
2022/09/30 09:58:16;;;;;;;6.78;4.93;;;;;;;12.06;74.94;100581.69;7394235;19;20023;-69
2022/09/30 10:03:28;;;;;;;7.53;5.63;;;;;;;12.20;73.98;100574.22;7395111;19;20006;-68
2022/09/30 10:06:08;;;;;;;8.13;4.63;;;;;;;12.29;71.60;100585.38;7394977;19;20019;-68
2022/09/30 10:08:38;;;;;;;7.10;4.00;;;;;;;12.35;72.13;100583.41;7392762;19;20066;-68
2022/09/30 10:11:09;;;;;;;6.60;5.28;;;;;;;12.42;71.84;100573.53;7394503;19;20011;-69
2022/09/30 10:13:44;;;;;;;5.45;4.78;;;;;;;12.51;71.46;100573.28;7392828;19;20448;-68
2022/09/30 10:16:29;;;;;;;4.25;3.85;;;;;;;12.57;70.51;100574.81;7394896;19;20082;-69
2022/09/30 10:19:06;;;;;;;4.85;3.22;;;;;;;12.66;69.92;100576.28;7392871;19;20074;-69
2022/09/30 10:21:37;;;;;;;5.50;4.93;;;;;;;12.77;69.48;100562.78;7394310;19;20021;-69
2022/09/30 10:24:21;;;;;;;7.13;4.18;;;;;;;12.83;67.82;100563.44;7392470;19;20461;-69
2022/09/30 10:26:49;;;;;;;5.70;3.63;;;;;;;12.95;68.94;100566.56;7394137;19;20015;-68
2022/09/30 10:29:30;;;;;;;3.75;3.33;;;;;;;13.01;66.93;100569.81;7401612;19;20480;-67
2022/09/30 10:32:00;;;;;;;4.50;3.20;;;;;;;13.10;66.81;100575.69;7401083;19;20480;-69
2022/09/30 10:34:31;;;;;;;5.07;3.13;;;;;;;13.17;66.37;100574.59;7401514;19;20430;-70
2022/09/30 10:37:09;;;;;;;5.78;3.83;;;;;;;13.25;66.03;100576.94;7401378;19;20365;-67
2022/09/30 10:39:40;;;;;;;4.57;3.90;;;;;;;13.33;65.99;100575.75;7401922;19;20014;-68
2022/09/30 10:42:13;;;;;;;4.15;3.42;;;;;;;13.41;65.91;100570.25;7401608;19;20025;-67
2022/09/30 10:44:45;;;;;;;5.50;3.65;;;;;;;13.47;64.29;100567.38;7402014;19;20021;-69
2022/09/30 10:47:18;;;;;;;8.23;3.42;;;;;;;13.56;64.61;100568.81;7399384;19;20014;-68
2022/09/30 10:49:50;;;;;;;7.53;3.93;;;;;;;13.62;64.39;100562.44;7401003;19;20073;-67
2022/09/30 10:52:24;;;;;;;6.43;4.40;;;;;;;13.66;63.98;100564.91;7398995;19;20082;-66
2022/09/30 10:54:56;;;;;;;4.70;2.80;;;;;;;13.67;63.49;100556.09;7400356;19;20548;-67
2022/09/30 10:57:27;;;;;;;4.93;3.58;;;;;;;13.78;62.98;100565.38;7399309;19;20018;-68
2022/09/30 11:00:03;;;;;;;5.97;3.97;;;;;;;13.87;63.10;100567.66;7400821;19;20434;-69
2022/09/30 11:02:39;;;;;;;6.13;3.72;;;;;;;13.94;62.92;100566.50;7400974;19;20082;-69
2022/09/30 11:05:16;;;;;;;6.95;3.28;;;;;;;14.02;62.10;100561.78;7400664;19;20020;-69
2022/09/30 11:07:56;;;;;;;5.18;3.40;;;;;;;14.08;62.06;100568.59;7399458;19;20085;-68
2022/09/30 11:10:35;;;;;;;4.93;3.70;;;;;;;14.14;60.55;100567.50;7400163;19;20023;-69
2022/09/30 11:13:13;;;;;;;5.45;2.63;;;;;;;14.21;60.94;100557.56;7400571;19;20035;-68
2022/09/30 11:15:50;;;;;;;5.38;3.38;;;;;;;14.26;60.81;100560.88;7399256;19;20078;-69
2022/09/30 11:18:23;;;;;;;5.55;3.78;;;;;;;14.31;60.28;100551.00;7397102;19;20086;-69
2022/09/30 11:20:57;;;;;;;3.55;3.03;;;;;;;14.36;59.94;100546.41;7398477;19;20085;-69
2022/09/30 11:23:37;;;;;;;3.42;2.63;;;;;;;14.41;59.46;100548.84;7395567;19;20015;-69
2022/09/30 11:26:12;;;;;;;3.90;2.20;;;;;;;14.48;59.46;100548.53;7399013;19;20187;-68
2022/09/30 11:28:51;;;;;;;5.75;2.90;;;;;;;14.53;56.82;100550.97;7396574;19;20023;-69
2022/09/30 11:31:31;;;;;;;3.40;2.30;;;;;;;14.58;56.02;100548.16;7398490;19;20090;-72
2022/09/30 11:34:17;;;;;;;5.47;3.97;;;;;;;14.60;56.18;100546.31;7399064;19;20074;-68
2022/09/30 11:36:56;;;;;;;6.50;3.80;;;;;;;14.63;57.25;100552.31;7400108;19;20094;-69
2022/09/30 11:39:56;;;;;;;4.35;3.20;;;;;;;14.66;56.20;100554.00;7394507;19;20018;-71
2022/09/30 11:42:31;;;;;;;4.47;3.17;;;;;;;14.67;56.22;100555.69;7399236;19;20022;-69
2022/09/30 11:45:10;;;;;;;3.30;2.40;;;;;;;14.70;53.51;100554.72;7399759;19;20078;-69
2022/09/30 11:48:00;;;;;;;5.28;2.50;;;;;;;14.76;54.82;100549.19;7397385;19;20041;-69
2022/09/30 11:50:40;;;;;;;3.60;2.47;;;;;;;14.86;54.64;100547.88;7398144;19;20022;-68
2022/09/30 11:53:23;;;;;;;3.25;2.38;;;;;;;14.92;51.09;100552.03;7398774;19;20409;-69
2022/09/30 11:56:12;;;;;;;3.38;3.08;;;;;;;14.99;53.21;100551.69;7398558;19;20083;-68
2022/09/30 11:58:45;;;;;;;3.45;2.97;;;;;;;15.09;53.49;100543.38;7396527;19;20020;-69
2022/09/30 12:01:32;;;;;;;4.95;3.33;;;;;;;15.19;52.90;100544.72;7398896;19;20028;-69